Cordoba, Argentina

2:47 PM ART on August 02, 2015 (GMT -0300)
Bo Altos de San Martin - NW, Cordoba city | | Change Station
CLOSE
Current Station
Personal Weather Station
Location: Cordoba City, CORDOBA
Elevation: 1421 ft
Nearby Weather Stations

Elev 1421 ft 31.38 °S, 64.22 °W | Updated 2 minutes ago

Clear
Clear
77.0 °F
Feels Like 77 °F
N
11.6
Wind Variable Wind from SE
Gusts 13.6 mph

Today
High -- | Low -- °F
--% Chance of Precip.
Yesterday
High -- | Low -- °F
Precip. -- in
8:04 AM 6:42 PM
Waning Gibbous, 93% visible
Pressure 29.83 in
Visibility -9999.0 miles
Clouds
Heat Index 77 °F
Dew Point 38 °F
Humidity 25%
Rainfall 0.00 in
Snow Depth Not available.
UV Not available.
Pollen Not available.
Air Quality Not available.
Flu Activity Not available.
METAR SACO 021700Z 16012KT CAVOK 24/08 Q1010

More Conditions Fewer Conditions

Pressure 29.83 in
Visibility -9999.0 miles
Clouds
Heat Index 77 °F
Dew Point 38 °F
Humidity 25%
Rainfall 0.00 in
Snow Depth Not available.
UV Not available.
Pollen Not available.
Air Quality Not available.
Flu Activity Not available.
METAR SACO 021700Z 16012KT CAVOK 24/08 Q1010

More Conditions Fewer Conditions

10-Day Weather Forecast

×

Almanac

Astronomy

Aug. 02, 2015 Rise Set
Actual Time
Civil Twilight
Nautical Twilight
Astronomical Twilight
Moon
Length of Visible Light
Length of Day
Tomorrow will be .
, % of the Moon is Illuminated

Today's Extremes

Country Highs Country Lows

Community

WunderPhotos

Upload Photos

1,843,323 photos uploaded!

WunderBlogs® & News

Nearby

Air Quality

  Air Quality AQ Index Pollutant
Not available.

Snow Depth

Station Depth Elevation

Earthquake Activity

City Distance Mag. Time & Date
Minimum magnitude displayed is 2.5.

Coastal Water Temperatures

Place Temperature

Stations

Nearby Weather Stations

Station Location Temp. Windchill Dew Point Humidity Wind Precip. Elev Updated Type